This is the latest recevied weather packets stored in our database for station/object KY0TEQ-13. If no packets are shown the sender has not sent any weather packets the latest 10 day(s).
| Time | Temp. | Humidity | Pressure | Rain* | Wind** | Luminosity | Snow |
|---|---|---|---|---|---|---|---|
| 1777619032 | 3.89° C | 43% | 1300.4 hPa | 0 mm | - | 0 W/m² | - |
| 1777618727 | 4.44° C | 42% | 1300.5 hPa | 0 mm | - | 0 W/m² | - |
| 1777618422 | 3.89° C | 43% | 1300.6 hPa | 0 mm | - | 0 W/m² | - |
| 1777618119 | 5.56° C | 40% | 1300.2 hPa | 0 mm | - | 0 W/m² | - |
| 1777617816 | 4.44° C | 41% | 1300.4 hPa | 0 mm | - | 0 W/m² | - |
| 1777617515 | 4.44° C | 41% | 1300.1 hPa | 0 mm | - | 0 W/m² | - |
| 1777617213 | 5° C | 41% | 1300.2 hPa | 0 mm | - | 0 W/m² | - |
| 1777616909 | 3.89° C | 43% | 1300.1 hPa | 0 mm | - | 0 W/m² | - |
| 1777616605 | 2.22° C | 47% | 1300.2 hPa | 0 mm | - | 0 W/m² | - |
| 1777616300 | 3.33° C | 45% | 1300 hPa | 0 mm | - | 0 W/m² | - |
| 1777615997 | 2.22° C | 47% | 1300.1 hPa | 0 mm | - | 0 W/m² | - |
| 1777615694 | 4.44° C | 40% | 1300 hPa | 0 mm | - | 0 W/m² | - |
| 1777615391 | 3.33° C | 44% | 1300.2 hPa | 0 mm | - | 0 W/m² | - |
| 1777615090 | 4.44° C | 41% | 1300.1 hPa | 0 mm | - | 0 W/m² | - |
| 1777614786 | 5° C | 39% | 1300 hPa | 0 mm | - | 0 W/m² | - |
| 1777614481 | 4.44° C | 40% | 1299.8 hPa | 0 mm | - | 0 W/m² | - |
| 1777614179 | 4.44° C | 41% | 1299.9 hPa | 0 mm | - | 0 W/m² | - |
| 1777613878 | 5° C | 39% | 1299.9 hPa | 0 mm | - | 0 W/m² | - |
| 1777613576 | 5° C | 39% | 1300.1 hPa | 0 mm | - | 0 W/m² | - |
| 1777613272 | 4.44° C | 39% | 1299.9 hPa | 0 mm | - | 0 W/m² | - |
| 1777612969 | 5° C | 39% | 1299.9 hPa | 0 mm | - | 0 W/m² | - |
| 1777612664 | 4.44° C | 42% | 1299.9 hPa | 0 mm | - | 0 W/m² | - |
| 1777612362 | 4.44° C | 39% | 1299.8 hPa | 0 mm | - | 0 W/m² | - |
| 1777612062 | 5.56° C | 37% | 1299.9 hPa | 0 mm | - | 0 W/m² | - |
| 1777611757 | 6.11° C | 35% | 1299.6 hPa | 0 mm | - | 0 W/m² | - |
* Rain latest hour (hover to see other rain measurements)
** Current wind speed in m/s (hover to see current wind gust speed)